Time;durP1;ratioP1;P1;durP2;ratioP2;P2;SDS_P1;SDS_P2;PMS_P1;PMS_P2;Temp;Humidity;BMP_temperature;BMP_pressure;BME280_temperature;BME280_humidity;BME280_pressure;Samples;Min_cycle;Max_cycle;Signal;HPM_P1;HPM_P2
2021/05/25 00:00:15;;;;;;;2.87;2.20;;;16.50;95.60;;;;;;5070764;28;20221;-70
2021/05/25 00:02:43;;;;;;;6.60;2.27;;;16.50;95.90;;;;;;5073446;28;20228;-71
2021/05/25 00:05:12;;;;;;;4.47;2.10;;;16.50;96.00;;;;;;5071498;28;20249;-71
2021/05/25 00:07:39;;;;;;;4.30;2.23;;;16.50;96.20;;;;;;5076711;28;20269;-72
2021/05/25 00:10:07;;;;;;;2.90;1.80;;;16.50;96.30;;;;;;5081060;28;20363;-72
2021/05/25 00:12:34;;;;;;;5.13;2.27;;;16.50;96.50;;;;;;5075650;28;20284;-71
2021/05/25 00:15:00;;;;;;;3.30;2.67;;;16.50;96.60;;;;;;5070625;28;20252;-71
2021/05/25 00:17:27;;;;;;;4.10;2.43;;;16.50;96.80;;;;;;5076648;28;20292;-71
2021/05/25 00:19:53;;;;;;;2.77;2.47;;;16.50;97.00;;;;;;5086461;28;20740;-72
2021/05/25 00:22:20;;;;;;;5.80;2.70;;;16.50;97.30;;;;;;5069848;28;20609;-72
2021/05/25 00:24:47;;;;;;;3.23;2.23;;;16.50;97.40;;;;;;5080614;28;20209;-71
2021/05/25 00:27:13;;;;;;;3.13;2.10;;;16.50;97.50;;;;;;5068568;28;20718;-71
2021/05/25 00:29:40;;;;;;;2.90;2.23;;;16.50;97.80;;;;;;5082792;28;20208;-72
2021/05/25 00:32:07;;;;;;;4.43;2.10;;;16.50;97.90;;;;;;5080514;28;20258;-72
2021/05/25 00:34:33;;;;;;;5.10;2.60;;;16.40;98.00;;;;;;5092568;28;20205;-71
2021/05/25 00:37:00;;;;;;;3.93;2.40;;;16.40;98.20;;;;;;5075845;28;20227;-71
2021/05/25 00:39:26;;;;;;;3.33;2.50;;;16.40;98.40;;;;;;5074026;28;20224;-72
2021/05/25 00:41:54;;;;;;;3.27;2.50;;;16.40;98.50;;;;;;5080000;28;20192;-70
2021/05/25 00:44:20;;;;;;;5.67;2.60;;;16.40;98.70;;;;;;5074411;28;20276;-72
2021/05/25 00:46:46;;;;;;;3.80;2.33;;;16.40;98.80;;;;;;5071778;28;20207;-70
2021/05/25 00:49:13;;;;;;;3.20;2.43;;;16.30;99.00;;;;;;5075891;28;20535;-71
2021/05/25 00:51:39;;;;;;;3.23;2.33;;;16.30;99.10;;;;;;5078359;28;20684;-71
2021/05/25 00:54:06;;;;;;;4.07;2.90;;;16.30;99.40;;;;;;5087613;28;20204;-71
2021/05/25 00:56:33;;;;;;;3.17;2.50;;;16.30;99.40;;;;;;5081601;28;20237;-71
2021/05/25 00:59:01;;;;;;;3.33;2.20;;;16.30;99.40;;;;;;5088622;28;20228;-71
2021/05/25 01:01:27;;;;;;;3.23;2.60;;;16.30;99.60;;;;;;5084258;28;20284;-70
2021/05/25 01:03:54;;;;;;;7.83;2.47;;;16.30;99.80;;;;;;5088081;28;20239;-72
2021/05/25 01:06:20;;;;;;;4.00;2.73;;;16.30;99.90;;;;;;5077866;28;20648;-71
2021/05/25 01:08:47;;;;;;;3.80;2.60;;;16.30;99.90;;;;;;5084370;28;20627;-71
2021/05/25 01:11:15;;;;;;;3.67;2.53;;;16.40;99.90;;;;;;5087467;28;20205;-71
2021/05/25 01:13:45;;;;;;;3.10;2.43;;;16.40;99.90;;;;;;5085319;28;20245;-71
2021/05/25 01:16:13;;;;;;;4.33;3.33;;;16.40;99.90;;;;;;5078839;28;20241;-70
2021/05/25 01:18:39;;;;;;;2.70;2.30;;;16.30;99.90;;;;;;5088395;28;20239;-71
2021/05/25 01:21:08;;;;;;;4.87;2.47;;;16.30;99.90;;;;;;5075447;28;20216;-71
2021/05/25 01:23:36;;;;;;;3.80;2.50;;;16.30;99.90;;;;;;5071136;28;20279;-72
2021/05/25 01:26:03;;;;;;;3.53;2.90;;;16.30;99.90;;;;;;5075086;28;20292;-72
2021/05/25 01:28:30;;;;;;;5.47;2.57;;;16.30;99.90;;;;;;5072708;28;20205;-71
2021/05/25 01:30:57;;;;;;;3.10;2.73;;;16.30;99.90;;;;;;5091468;28;20666;-67
2021/05/25 01:33:26;;;;;;;4.43;2.90;;;16.30;99.90;;;;;;5088227;28;20292;-68
2021/05/25 01:35:52;;;;;;;3.83;2.33;;;16.30;99.90;;;;;;5081419;28;20202;-71
2021/05/25 01:38:20;;;;;;;4.90;2.63;;;16.20;99.90;;;;;;5079838;28;20209;-72
2021/05/25 01:40:48;;;;;;;4.43;2.80;;;16.20;99.90;;;;;;5076981;28;20240;-71
2021/05/25 01:43:14;;;;;;;3.70;3.33;;;16.20;99.90;;;;;;5091218;28;20235;-71
2021/05/25 01:45:42;;;;;;;3.90;2.93;;;16.20;99.90;;;;;;5096709;28;20247;-72
2021/05/25 01:48:10;;;;;;;3.43;2.63;;;16.10;99.90;;;;;;5087730;28;20224;-71
2021/05/25 01:50:38;;;;;;;3.83;2.73;;;16.10;99.90;;;;;;5092587;28;20204;-71
2021/05/25 01:53:07;;;;;;;3.43;2.43;;;16.10;99.90;;;;;;5082369;28;20264;-71
2021/05/25 01:55:36;;;;;;;2.80;2.60;;;16.10;99.90;;;;;;5080249;28;20236;-71
2021/05/25 01:58:06;;;;;;;3.17;2.40;;;16.00;99.90;;;;;;5080939;28;20209;-72
2021/05/25 02:00:33;;;;;;;4.17;2.50;;;16.00;99.90;;;;;;5084571;28;20660;-72
2021/05/25 02:03:00;;;;;;;3.93;2.80;;;16.00;99.90;;;;;;5093106;28;20221;-71
2021/05/25 02:05:27;;;;;;;4.63;2.40;;;15.90;99.90;;;;;;5083468;28;20261;-72
2021/05/25 02:07:54;;;;;;;3.10;2.80;;;15.90;99.90;;;;;;5088845;28;20669;-72
2021/05/25 02:10:26;;;;;;;3.97;2.90;;;15.80;99.90;;;;;;5076678;28;20288;-71
2021/05/25 02:12:56;;;;;;;7.67;3.07;;;15.80;99.90;;;;;;5083231;28;20723;-71
2021/05/25 02:15:23;;;;;;;7.77;2.80;;;15.80;99.90;;;;;;5075332;28;20309;-71
2021/05/25 02:17:49;;;;;;;5.50;2.83;;;15.80;99.90;;;;;;5080809;28;20308;-71
2021/05/25 02:20:16;;;;;;;3.17;2.57;;;15.80;99.90;;;;;;5087987;28;20224;-70
2021/05/25 02:22:43;;;;;;;5.47;2.70;;;15.70;99.90;;;;;;5072619;28;20626;-70
2021/05/25 02:25:10;;;;;;;3.67;2.60;;;15.70;99.90;;;;;;5071909;28;20320;-71
2021/05/25 02:27:36;;;;;;;3.47;2.70;;;15.60;99.90;;;;;;5082076;28;20235;-72
2021/05/25 02:30:04;;;;;;;4.63;3.37;;;15.50;99.90;;;;;;5081570;28;20232;-71
2021/05/25 02:32:31;;;;;;;3.30;3.00;;;15.50;99.90;;;;;;5073518;28;20215;-70
2021/05/25 02:34:58;;;;;;;3.90;2.90;;;15.40;99.90;;;;;;5078963;28;20240;-70
2021/05/25 02:37:24;;;;;;;5.97;2.63;;;15.30;99.90;;;;;;5079204;28;20745;-71
2021/05/25 02:39:51;;;;;;;3.40;2.50;;;15.30;99.90;;;;;;5082992;28;20343;-72
2021/05/25 02:42:17;;;;;;;4.60;2.77;;;15.20;99.90;;;;;;5074091;28;20209;-71
2021/05/25 02:44:43;;;;;;;3.67;2.70;;;15.20;99.90;;;;;;5080058;28;20292;-71
2021/05/25 02:47:10;;;;;;;3.13;2.40;;;15.10;99.90;;;;;;5071759;28;20233;-72
2021/05/25 02:49:37;;;;;;;4.10;2.60;;;15.00;99.90;;;;;;5081793;28;20212;-71
2021/05/25 02:52:04;;;;;;;5.77;2.80;;;14.90;99.90;;;;;;5075862;28;20264;-70
2021/05/25 02:54:30;;;;;;;3.60;2.40;;;14.90;99.90;;;;;;5071158;28;20209;-72
2021/05/25 02:56:57;;;;;;;3.23;2.47;;;14.80;99.90;;;;;;5070231;28;20194;-70
2021/05/25 02:59:23;;;;;;;2.83;2.30;;;14.80;99.90;;;;;;5076409;28;20275;-71
2021/05/25 03:01:49;;;;;;;3.67;2.33;;;14.80;99.90;;;;;;5074553;28;20213;-71
2021/05/25 03:04:16;;;;;;;2.97;2.43;;;14.80;99.90;;;;;;5073909;28;20217;-71
2021/05/25 03:06:43;;;;;;;10.50;2.50;;;14.70;99.90;;;;;;5076916;28;20201;-71
2021/05/25 03:09:10;;;;;;;3.30;2.70;;;14.70;99.90;;;;;;5071172;28;20215;-70
2021/05/25 03:11:36;;;;;;;2.97;2.40;;;14.60;99.90;;;;;;5083054;28;20232;-70
2021/05/25 03:14:03;;;;;;;3.17;2.50;;;14.60;99.90;;;;;;5074491;28;20593;-70
2021/05/25 03:16:30;;;;;;;4.03;2.83;;;14.60;99.90;;;;;;5072436;28;20209;-70
2021/05/25 03:18:56;;;;;;;4.33;2.80;;;14.50;99.90;;;;;;5072752;28;20198;-71
2021/05/25 03:21:22;;;;;;;3.47;2.40;;;14.50;99.90;;;;;;5073198;28;20205;-70
2021/05/25 03:23:50;;;;;;;3.10;2.77;;;14.50;99.90;;;;;;5073029;28;20680;-70
2021/05/25 03:26:17;;;;;;;4.07;2.60;;;14.50;99.90;;;;;;5072732;28;20625;-70
2021/05/25 03:28:43;;;;;;;5.23;2.70;;;14.40;99.90;;;;;;5071267;28;21038;-70
2021/05/25 03:31:09;;;;;;;2.93;2.63;;;14.50;99.90;;;;;;5076062;28;20233;-71
2021/05/25 03:33:36;;;;;;;5.10;3.33;;;14.40;99.90;;;;;;5073080;28;20287;-71
2021/05/25 03:36:02;;;;;;;3.47;3.17;;;14.40;99.90;;;;;;5073265;28;20650;-71
2021/05/25 03:38:29;;;;;;;2.90;2.70;;;14.40;99.90;;;;;;5072260;28;20209;-71
2021/05/25 03:40:57;;;;;;;5.53;2.97;;;14.80;99.90;;;;;;5084407;28;20255;-71
2021/05/25 03:43:23;;;;;;;5.17;3.20;;;14.50;99.90;;;;;;5077754;28;20213;-71
2021/05/25 03:45:49;;;;;;;3.60;3.20;;;14.50;99.90;;;;;;5067601;28;20292;-71
2021/05/25 03:48:17;;;;;;;5.03;3.20;;;14.50;99.90;;;;;;5081069;28;20296;-71
2021/05/25 03:50:44;;;;;;;5.00;3.07;;;14.50;99.90;;;;;;5088163;28;20197;-71
2021/05/25 03:53:11;;;;;;;3.20;2.80;;;14.50;99.90;;;;;;5082624;28;20233;-70
2021/05/25 03:55:45;;;;;;;5.37;3.47;;;14.50;99.90;;;;;;5069459;28;20279;-71
2021/05/25 04:00:58;;;;;;;3.33;3.03;;;14.50;99.90;;;;;;5071517;28;20220;-71
2021/05/25 04:03:25;;;;;;;4.03;2.97;;;14.40;99.90;;;;;;5082506;28;20303;-72
2021/05/25 04:05:51;;;;;;;4.10;3.20;;;14.40;99.90;;;;;;5072408;28;20217;-71
2021/05/25 04:08:18;;;;;;;3.97;2.93;;;14.40;99.90;;;;;;5083524;28;20637;-71
2021/05/25 04:10:45;;;;;;;4.57;3.03;;;14.40;99.90;;;;;;5086274;28;20311;-72
2021/05/25 04:13:13;;;;;;;4.13;3.13;;;14.40;99.90;;;;;;5071816;28;20371;-71
2021/05/25 04:15:43;;;;;;;4.07;3.20;;;14.40;99.90;;;;;;5073424;28;20206;-71
2021/05/25 04:18:10;;;;;;;4.00;3.07;;;14.40;99.90;;;;;;5075985;28;20557;-70
2021/05/25 04:20:36;;;;;;;4.47;3.30;;;14.30;99.90;;;;;;5083036;28;20266;-71
2021/05/25 04:23:03;;;;;;;3.63;3.20;;;14.40;99.90;;;;;;5076419;28;20208;-72
2021/05/25 04:25:29;;;;;;;4.93;3.37;;;14.40;99.90;;;;;;5074175;28;20702;-71
2021/05/25 04:27:55;;;;;;;5.43;3.80;;;14.40;99.90;;;;;;5074531;28;20209;-70
2021/05/25 04:30:24;;;;;;;6.23;3.87;;;14.40;99.90;;;;;;5081775;28;20217;-70
2021/05/25 04:32:51;;;;;;;4.40;3.77;;;14.40;99.90;;;;;;5074619;28;20693;-71
2021/05/25 04:35:17;;;;;;;8.27;4.60;;;14.40;99.90;;;;;;5077395;28;20292;-71
2021/05/25 04:37:44;;;;;;;4.27;3.87;;;14.40;99.90;;;;;;5075557;28;20208;-71
2021/05/25 04:40:12;;;;;;;4.97;4.00;;;14.30;99.90;;;;;;5078040;28;20224;-71
2021/05/25 04:42:39;;;;;;;4.70;3.70;;;14.30;99.90;;;;;;5082352;28;20287;-71
2021/05/25 04:45:07;;;;;;;4.97;4.30;;;14.30;99.90;;;;;;5080307;28;20208;-70
2021/05/25 04:47:35;;;;;;;4.87;4.07;;;14.30;99.90;;;;;;5075391;28;20657;-72
2021/05/25 04:50:02;;;;;;;5.73;4.07;;;14.30;99.90;;;;;;5076023;28;20304;-72
2021/05/25 04:52:28;;;;;;;3.90;3.40;;;14.30;99.90;;;;;;5077780;28;20209;-69
2021/05/25 04:54:55;;;;;;;4.70;3.47;;;14.30;99.90;;;;;;5077099;28;20294;-70
2021/05/25 04:57:23;;;;;;;5.57;3.90;;;14.30;99.90;;;;;;5071548;28;20263;-70
2021/05/25 04:59:49;;;;;;;5.60;3.90;;;14.30;99.90;;;;;;5073155;28;20225;-70
2021/05/25 05:02:16;;;;;;;4.47;3.80;;;14.30;99.90;;;;;;5083164;28;20201;-71
2021/05/25 05:04:44;;;;;;;3.97;3.67;;;14.30;99.90;;;;;;5078132;28;20288;-72
2021/05/25 05:07:10;;;;;;;4.07;3.37;;;14.30;99.90;;;;;;5088615;28;20211;-70
2021/05/25 05:09:37;;;;;;;5.13;3.37;;;14.20;99.90;;;;;;5088255;28;20330;-71
2021/05/25 05:12:03;;;;;;;3.70;3.40;;;14.30;99.90;;;;;;5081744;28;20201;-71
2021/05/25 05:14:30;;;;;;;5.13;3.50;;;14.30;99.90;;;;;;5074978;28;20708;-70
2021/05/25 05:16:56;;;;;;;3.77;3.30;;;14.30;99.90;;;;;;5079477;28;20295;-71
2021/05/25 05:19:23;;;;;;;3.57;3.23;;;14.30;99.90;;;;;;5089747;28;20208;-71
2021/05/25 05:21:50;;;;;;;3.67;2.87;;;14.40;99.90;;;;;;5077062;28;20293;-70
2021/05/25 05:24:16;;;;;;;4.00;2.97;;;14.40;99.90;;;;;;5086978;28;20251;-70
2021/05/25 05:26:43;;;;;;;4.33;2.97;;;14.30;99.90;;;;;;5073075;28;20367;-70
2021/05/25 05:29:10;;;;;;;3.47;3.10;;;14.40;99.90;;;;;;5079971;28;20238;-70
2021/05/25 05:31:36;;;;;;;5.33;2.83;;;14.30;99.90;;;;;;5094954;28;20229;-70
2021/05/25 05:34:03;;;;;;;5.60;3.20;;;14.40;99.90;;;;;;5083313;28;20322;-72
2021/05/25 05:36:30;;;;;;;4.37;3.37;;;14.40;99.90;;;;;;5074108;28;20220;-71
2021/05/25 05:38:57;;;;;;;4.97;3.83;;;14.40;99.90;;;;;;5073598;28;20293;-72
2021/05/25 05:41:23;;;;;;;3.07;2.83;;;14.50;99.90;;;;;;5076317;28;20293;-72
2021/05/25 05:43:50;;;;;;;3.40;3.10;;;14.50;99.90;;;;;;5079836;28;20451;-70
2021/05/25 05:46:17;;;;;;;3.20;2.90;;;14.60;99.90;;;;;;5089883;28;20264;-71
2021/05/25 05:48:44;;;;;;;3.40;2.90;;;14.60;99.90;;;;;;5091063;28;20212;-70
2021/05/25 05:51:10;;;;;;;4.73;3.03;;;14.70;99.90;;;;;;5072597;28;20601;-72
2021/05/25 05:53:36;;;;;;;3.73;3.20;;;14.70;99.90;;;;;;5072546;28;20219;-71
2021/05/25 05:56:04;;;;;;;4.27;3.07;;;14.70;99.90;;;;;;5071271;28;20328;-71
2021/05/25 05:58:31;;;;;;;4.30;2.93;;;14.80;99.90;;;;;;5077013;28;20394;-70
2021/05/25 06:00:57;;;;;;;3.20;2.90;;;14.80;99.90;;;;;;5074025;28;20318;-71
2021/05/25 06:03:23;;;;;;;4.67;3.00;;;14.80;99.90;;;;;;5075394;28;20237;-71
2021/05/25 06:05:50;;;;;;;5.00;3.10;;;14.80;99.90;;;;;;5085405;28;20209;-71
2021/05/25 06:08:17;;;;;;;3.73;3.33;;;14.80;99.90;;;;;;5088291;28;20209;-69
2021/05/25 06:10:50;;;;;;;5.30;3.40;;;14.80;99.90;;;;;;5087576;28;20205;-67
2021/05/25 06:13:18;;;;;;;2.83;2.60;;;14.70;99.90;;;;;;5073709;28;20217;-71
2021/05/25 06:15:45;;;;;;;4.30;3.17;;;14.80;99.90;;;;;;5074135;28;20267;-70
2021/05/25 06:18:11;;;;;;;4.27;3.60;;;14.80;99.90;;;;;;5079135;28;20303;-72
2021/05/25 06:20:38;;;;;;;3.73;3.30;;;14.70;99.90;;;;;;5075995;28;20321;-71
2021/05/25 06:23:04;;;;;;;3.90;3.20;;;14.80;99.90;;;;;;5088125;28;20212;-69
2021/05/25 06:25:30;;;;;;;4.77;3.00;;;14.70;99.90;;;;;;5070241;28;20244;-69
2021/05/25 06:27:57;;;;;;;3.00;2.70;;;14.80;99.90;;;;;;5068807;28;20209;-70
2021/05/25 06:30:24;;;;;;;5.03;2.97;;;14.80;99.90;;;;;;5076362;28;20228;-71
2021/05/25 06:32:51;;;;;;;4.83;2.57;;;14.80;99.90;;;;;;5074411;28;20303;-71
2021/05/25 06:35:17;;;;;;;4.03;3.27;;;14.80;99.90;;;;;;5075640;28;20288;-70
2021/05/25 06:37:44;;;;;;;4.27;2.50;;;14.80;99.90;;;;;;5085148;28;20201;-71
2021/05/25 06:40:12;;;;;;;4.17;3.30;;;14.80;99.90;;;;;;5087174;28;20792;-70
2021/05/25 06:42:40;;;;;;;3.13;2.80;;;14.80;99.90;;;;;;5075628;28;20250;-65
2021/05/25 06:45:08;;;;;;;6.17;4.00;;;14.80;99.90;;;;;;5080225;28;20201;-66
2021/05/25 06:47:35;;;;;;;7.30;3.87;;;14.80;99.90;;;;;;5074161;28;20287;-66
2021/05/25 06:50:03;;;;;;;5.07;4.00;;;14.80;99.90;;;;;;5091727;28;20562;-66
2021/05/25 06:52:29;;;;;;;14.90;7.37;;;14.80;99.90;;;;;;5077688;28;20579;-70
2021/05/25 06:54:57;;;;;;;4.73;3.00;;;14.90;99.90;;;;;;5077157;28;20243;-69
2021/05/25 06:57:23;;;;;;;3.50;2.80;;;14.90;99.90;;;;;;5087613;28;20212;-65
2021/05/25 06:59:50;;;;;;;7.87;3.67;;;14.90;99.90;;;;;;5072076;28;20225;-66
2021/05/25 07:02:16;;;;;;;3.33;3.00;;;14.90;99.90;;;;;;5073482;28;20655;-66
2021/05/25 07:04:43;;;;;;;4.03;3.57;;;14.90;99.90;;;;;;5074863;28;20233;-66
2021/05/25 07:07:10;;;;;;;5.00;4.07;;;14.90;99.90;;;;;;5080979;28;20288;-66
2021/05/25 07:09:36;;;;;;;6.63;3.67;;;14.90;99.90;;;;;;5085416;28;20202;-67
2021/05/25 07:12:03;;;;;;;4.07;3.10;;;15.00;99.90;;;;;;5077092;28;20347;-67
2021/05/25 07:14:29;;;;;;;3.60;2.90;;;15.00;99.90;;;;;;5067409;28;20258;-67
2021/05/25 07:16:56;;;;;;;3.73;2.97;;;15.00;99.90;;;;;;5068557;28;20642;-65
2021/05/25 07:19:23;;;;;;;2.83;2.63;;;15.10;99.90;;;;;;5074930;28;20239;-67
2021/05/25 07:21:50;;;;;;;7.07;2.90;;;15.10;99.90;;;;;;5071208;28;20205;-68
2021/05/25 07:24:16;;;;;;;4.90;3.07;;;15.20;99.90;;;;;;5073355;28;20232;-67
2021/05/25 07:26:43;;;;;;;4.80;2.80;;;15.30;99.90;;;;;;5073908;28;20217;-67
2021/05/25 07:29:09;;;;;;;3.70;3.03;;;15.40;99.90;;;;;;5078601;28;20243;-66
2021/05/25 07:31:36;;;;;;;5.97;3.23;;;15.40;99.90;;;;;;5079143;28;20205;-66
2021/05/25 07:34:02;;;;;;;5.00;3.00;;;15.50;99.90;;;;;;5072602;28;20783;-65
2021/05/25 07:36:29;;;;;;;3.63;2.53;;;15.60;99.90;;;;;;5069719;28;20288;-68
2021/05/25 07:38:56;;;;;;;2.93;2.63;;;15.60;99.90;;;;;;5077586;28;20660;-68
2021/05/25 07:41:23;;;;;;;3.67;2.80;;;15.70;99.90;;;;;;5068780;28;20232;-66
2021/05/25 07:43:49;;;;;;;6.27;2.63;;;15.80;99.90;;;;;;5066012;28;20292;-68
2021/05/25 07:46:17;;;;;;;5.23;3.20;;;15.80;99.90;;;;;;5069290;28;20220;-66
2021/05/25 07:48:43;;;;;;;3.60;2.57;;;15.80;99.90;;;;;;5069291;28;20205;-67
2021/05/25 07:51:10;;;;;;;3.87;2.87;;;15.80;99.90;;;;;;5082271;28;20217;-68
2021/05/25 07:53:37;;;;;;;3.87;2.83;;;15.80;99.90;;;;;;5087560;28;20235;-67
2021/05/25 07:56:04;;;;;;;8.03;2.87;;;15.90;99.90;;;;;;5085780;28;20303;-66
2021/05/25 07:58:31;;;;;;;3.07;2.67;;;16.00;99.90;;;;;;5080692;28;20721;-67
2021/05/25 08:00:58;;;;;;;2.87;2.60;;;16.10;99.90;;;;;;5069756;28;20671;-66
2021/05/25 08:03:24;;;;;;;2.73;2.53;;;16.20;99.90;;;;;;5077913;28;20220;-67
2021/05/25 08:05:51;;;;;;;4.03;2.73;;;16.30;99.90;;;;;;5084002;28;20209;-68
2021/05/25 08:08:18;;;;;;;2.93;2.63;;;16.40;99.90;;;;;;5072150;28;20568;-67
2021/05/25 08:10:44;;;;;;;4.23;2.70;;;16.50;99.90;;;;;;5076771;28;20336;-65
2021/05/25 08:13:12;;;;;;;3.00;2.70;;;16.60;99.90;;;;;;5079868;28;20235;-67
2021/05/25 08:15:40;;;;;;;4.10;2.60;;;16.70;99.90;;;;;;5083449;28;20247;-68
2021/05/25 08:18:13;;;;;;;3.13;2.40;;;16.80;99.90;;;;;;5076009;28;20201;-67
2021/05/25 08:20:40;;;;;;;3.33;2.30;;;16.90;99.90;;;;;;5080960;28;20217;-68
2021/05/25 08:23:10;;;;;;;3.03;2.40;;;16.90;99.90;;;;;;5070096;28;20205;-66
2021/05/25 08:25:37;;;;;;;2.90;2.30;;;16.90;99.90;;;;;;5077354;28;20649;-67
2021/05/25 08:28:06;;;;;;;4.53;2.13;;;16.90;99.90;;;;;;5081478;28;20216;-67
2021/05/25 08:30:37;;;;;;;5.30;2.60;;;17.00;99.90;;;;;;5085975;28;20672;-66
2021/05/25 08:33:05;;;;;;;4.23;2.27;;;16.90;99.90;;;;;;5071407;28;20205;-67
2021/05/25 08:35:35;;;;;;;3.10;2.30;;;16.90;99.90;;;;;;5087482;28;20257;-67
2021/05/25 08:38:03;;;;;;;4.43;2.90;;;16.80;99.90;;;;;;5079931;28;20205;-66
2021/05/25 08:40:30;;;;;;;3.80;2.13;;;16.90;99.90;;;;;;5067242;28;20690;-67
2021/05/25 08:42:58;;;;;;;4.73;2.30;;;16.80;99.90;;;;;;5064549;28;20205;-67
2021/05/25 08:45:25;;;;;;;4.93;2.33;;;16.80;99.90;;;;;;5056700;28;20545;-66
2021/05/25 08:47:54;;;;;;;2.40;2.20;;;16.90;99.90;;;;;;5053117;28;20645;-67
2021/05/25 08:50:25;;;;;;;2.60;2.03;;;16.90;99.90;;;;;;5066831;28;20691;-66
2021/05/25 08:52:53;;;;;;;2.80;2.37;;;16.90;99.90;;;;;;5073824;28;20217;-67
2021/05/25 08:55:21;;;;;;;2.70;2.50;;;16.80;99.90;;;;;;5076634;28;20320;-69
2021/05/25 08:57:47;;;;;;;3.83;2.23;;;16.80;99.90;;;;;;5089197;28;20275;-69
2021/05/25 09:00:15;;;;;;;2.23;2.07;;;16.80;99.90;;;;;;5083007;28;20228;-69
2021/05/25 09:02:42;;;;;;;2.43;2.13;;;16.80;99.90;;;;;;5084581;28;20657;-70
2021/05/25 09:05:11;;;;;;;5.97;2.53;;;16.80;99.90;;;;;;5076869;28;20201;-70
2021/05/25 09:07:43;;;;;;;4.53;2.37;;;16.80;99.90;;;;;;5080691;28;20288;-69
2021/05/25 09:10:15;;;;;;;3.30;2.10;;;16.80;99.90;;;;;;5083295;28;20200;-68
2021/05/25 09:12:45;;;;;;;2.67;2.07;;;16.80;99.90;;;;;;5081515;28;20204;-69
2021/05/25 09:15:13;;;;;;;3.80;2.50;;;16.80;99.90;;;;;;5079284;28;20237;-68
2021/05/25 09:17:40;;;;;;;5.10;2.37;;;16.80;99.90;;;;;;5090833;28;20292;-69
2021/05/25 09:20:10;;;;;;;5.37;2.53;;;16.80;99.90;;;;;;5088648;28;20220;-69
2021/05/25 09:22:38;;;;;;;5.90;2.70;;;16.80;99.90;;;;;;5078210;28;20352;-67
2021/05/25 09:25:15;;;;;;;3.50;2.70;;;16.80;99.90;;;;;;5078215;28;20210;-67
2021/05/25 09:27:45;;;;;;;5.40;3.00;;;16.90;99.90;;;;;;5075610;28;20304;-70
2021/05/25 09:30:23;;;;;;;3.67;2.73;;;16.90;99.90;;;;;;5078239;28;20220;-71
2021/05/25 09:32:55;;;;;;;3.17;2.87;;;16.90;99.90;;;;;;5083149;28;20246;-70
2021/05/25 09:35:24;;;;;;;4.73;3.10;;;17.00;99.90;;;;;;5075092;28;20202;-69
2021/05/25 09:37:52;;;;;;;4.73;3.00;;;17.10;99.90;;;;;;5073681;28;20214;-70
2021/05/25 09:40:20;;;;;;;3.20;2.87;;;17.20;99.90;;;;;;5082755;28;20278;-69
2021/05/25 09:42:48;;;;;;;3.73;3.40;;;17.20;99.90;;;;;;5086355;28;20303;-68
2021/05/25 09:45:17;;;;;;;3.50;3.20;;;17.20;99.90;;;;;;5081268;28;20228;-67
2021/05/25 09:47:46;;;;;;;4.03;3.13;;;17.20;99.90;;;;;;5087319;28;20205;-67
2021/05/25 09:50:15;;;;;;;5.53;3.90;;;17.20;99.90;;;;;;5084581;28;20205;-68
2021/05/25 09:53:01;;;;;;;4.03;3.63;;;17.20;99.90;;;;;;5079612;28;20596;-67
2021/05/25 09:55:28;;;;;;;4.70;3.73;;;17.20;99.90;;;;;;5082042;28;20323;-68
2021/05/25 09:57:56;;;;;;;4.10;3.67;;;17.20;99.90;;;;;;5081303;28;20703;-67
2021/05/25 10:00:24;;;;;;;5.03;3.67;;;17.10;99.90;;;;;;5074514;28;20642;-69
2021/05/25 10:03:09;;;;;;;4.80;4.10;;;17.10;99.90;;;;;;5074995;28;20223;-66
2021/05/25 10:05:36;;;;;;;4.37;3.97;;;17.20;99.90;;;;;;5072639;28;20197;-67
2021/05/25 10:08:04;;;;;;;4.73;3.80;;;17.30;99.90;;;;;;5068772;28;20670;-66
2021/05/25 10:10:33;;;;;;;5.60;4.33;;;17.50;99.90;;;;;;5071509;28;20202;-67
2021/05/25 10:12:59;;;;;;;4.43;4.03;;;18.00;99.90;;;;;;5065201;28;20595;-67
2021/05/25 10:15:29;;;;;;;8.77;4.00;;;18.40;99.90;;;;;;5073997;28;20295;-68
2021/05/25 10:20:39;;;;;;;4.95;4.15;;;19.10;99.90;;;;;;5059791;28;20225;-65
2021/05/25 10:23:07;;;;;;;4.32;3.92;;;19.50;99.90;;;;;;5068198;28;20250;-67
2021/05/25 10:25:36;;;;;;;3.53;3.22;;;19.80;99.90;;;;;;5067291;28;20216;-67
2021/05/25 10:28:07;;;;;;;3.95;3.65;;;20.60;99.90;;;;;;5067611;28;20721;-68
2021/05/25 10:30:39;;;;;;;4.88;3.53;;;20.70;99.90;;;;;;5067767;28;20208;-68
2021/05/25 10:33:26;;;;;;;4.03;3.42;;;21.00;99.90;;;;;;5066231;28;20216;-67
2021/05/25 10:35:55;;;;;;;4.63;3.20;;;21.30;99.90;;;;;;5072699;28;20585;-66
2021/05/25 10:38:25;;;;;;;4.53;3.08;;;21.50;99.90;;;;;;5069367;28;20288;-67
2021/05/25 10:40:53;;;;;;;3.38;3.08;;;21.70;99.90;;;;;;5060703;28;20321;-67
2021/05/25 10:43:45;;;;;;;4.93;2.90;;;21.80;99.90;;;;;;5073692;28;20209;-66
2021/05/25 10:46:17;;;;;;;4.15;3.00;;;21.70;99.00;;;;;;5072011;28;20205;-66
2021/05/25 10:49:02;;;;;;;6.68;3.08;;;21.60;97.10;;;;;;5067837;28;20206;-68
2021/05/25 10:52:15;;;;;;;5.43;3.30;;;21.40;97.60;;;;;;5072426;28;20228;-67
2021/05/25 10:54:56;;;;;;;2.80;2.53;;;21.30;98.70;;;;;;5065340;28;20577;-66
2021/05/25 10:57:49;;;;;;;2.72;2.53;;;21.30;98.60;;;;;;5057432;28;20255;-67
2021/05/25 11:00:35;;;;;;;4.50;2.50;;;21.30;97.50;;;;;;5071622;28;20320;-67
2021/05/25 11:03:03;;;;;;;4.18;3.33;;;21.30;97.50;;;;;;5063291;28;20287;-67
2021/05/25 11:05:47;;;;;;;3.03;2.72;;;21.40;97.50;;;;;;5072592;28;20236;-69
2021/05/25 11:08:37;;;;;;;4.70;2.80;;;21.60;97.60;;;;;;5065069;28;20292;-67
2021/05/25 11:11:10;;;;;;;3.40;2.42;;;21.90;96.50;;;;;;5057326;28;20202;-69
2021/05/25 11:13:42;;;;;;;4.70;2.75;;;21.90;95.60;;;;;;5069555;28;20767;-70
2021/05/25 11:16:12;;;;;;;4.13;2.75;;;21.80;94.80;;;;;;5072164;28;20244;-68
2021/05/25 11:18:43;;;;;;;3.67;3.17;;;21.70;94.50;;;;;;5071912;28;20204;-67
2021/05/25 11:21:21;;;;;;;3.60;2.33;;;21.50;94.30;;;;;;5073312;28;20221;-67
2021/05/25 11:23:51;;;;;;;2.35;2.00;;;21.30;93.60;;;;;;5072669;28;20234;-68
2021/05/25 11:26:57;;;;;;;3.00;2.00;;;21.00;93.30;;;;;;5071477;28;20197;-66
2021/05/25 11:29:26;;;;;;;3.38;2.28;;;20.80;93.90;;;;;;5067012;28;20205;-68
2021/05/25 11:31:53;;;;;;;2.03;1.80;;;20.80;94.60;;;;;;5071721;28;20670;-66
2021/05/25 11:34:24;;;;;;;3.25;1.67;;;21.00;94.70;;;;;;5071144;28;20219;-67
2021/05/25 11:36:59;;;;;;;3.20;1.90;;;21.30;94.00;;;;;;5072153;28;20323;-65
2021/05/25 11:39:26;;;;;;;4.32;1.60;;;21.70;93.20;;;;;;5072378;28;20724;-67
2021/05/25 11:41:53;;;;;;;4.50;1.70;;;22.10;91.80;;;;;;5070283;28;20279;-67
2021/05/25 11:44:22;;;;;;;2.25;1.70;;;22.40;90.00;;;;;;5071976;28;20312;-70
2021/05/25 11:46:50;;;;;;;1.92;1.50;;;22.60;86.60;;;;;;5072274;28;20569;-66
2021/05/25 11:49:17;;;;;;;2.78;1.65;;;22.60;84.70;;;;;;5067031;28;20283;-66
2021/05/25 11:51:45;;;;;;;1.80;1.70;;;22.70;84.10;;;;;;5070983;28;20586;-68
2021/05/25 11:54:13;;;;;;;2.35;1.70;;;22.80;82.40;;;;;;5071206;28;20248;-68
2021/05/25 11:56:43;;;;;;;4.97;1.48;;;22.90;80.80;;;;;;5072603;28;20320;-67
2021/05/25 11:59:20;;;;;;;3.13;2.05;;;22.80;80.00;;;;;;5071573;28;20315;-69
2021/05/25 12:01:49;;;;;;;2.63;1.90;;;22.60;80.00;;;;;;5073191;28;20227;-68
2021/05/25 12:04:16;;;;;;;2.28;1.80;;;22.30;80.30;;;;;;5071384;28;20573;-68
2021/05/25 12:06:51;;;;;;;3.10;2.00;;;22.10;81.00;;;;;;5072405;28;20227;-68
2021/05/25 12:09:18;;;;;;;5.30;2.97;;;21.80;82.00;;;;;;5071780;28;20196;-70
2021/05/25 12:11:47;;;;;;;3.85;2.17;;;21.60;83.40;;;;;;5065978;28;20251;-68
2021/05/25 12:14:15;;;;;;;2.33;1.90;;;21.40;85.20;;;;;;5073241;28;20646;-68
2021/05/25 12:16:43;;;;;;;2.97;1.70;;;21.30;86.10;;;;;;5072367;28;20201;-67
2021/05/25 12:19:21;;;;;;;1.90;1.80;;;21.20;86.80;;;;;;5072087;28;20209;-65
2021/05/25 12:21:48;;;;;;;3.22;1.88;;;21.10;87.70;;;;;;5070432;28;20265;-70
2021/05/25 12:24:14;;;;;;;3.53;1.83;;;21.00;88.00;;;;;;5071450;28;20738;-67
2021/05/25 12:26:48;;;;;;;3.60;2.30;;;20.90;88.60;;;;;;5072434;28;20205;-68
2021/05/25 12:29:15;;;;;;;4.93;2.10;;;20.80;88.80;;;;;;5069842;28;20206;-67
2021/05/25 12:31:41;;;;;;;4.18;2.85;;;20.70;88.60;;;;;;5068042;28;20209;-65
2021/05/25 12:34:08;;;;;;;1.95;1.70;;;20.70;89.20;;;;;;5072979;28;20209;-67
2021/05/25 12:36:54;;;;;;;5.63;3.97;;;20.70;89.50;;;;;;5070551;28;20208;-67
2021/05/25 12:39:37;;;;;;;3.65;2.60;;;20.80;90.00;;;;;;5076266;28;20231;-67
2021/05/25 12:42:13;;;;;;;3.22;2.22;;;20.90;90.20;;;;;;5074290;28;20801;-68
2021/05/25 12:44:39;;;;;;;3.50;1.90;;;21.00;90.40;;;;;;5066000;28;20271;-67
2021/05/25 12:47:08;;;;;;;2.05;1.85;;;21.00;90.00;;;;;;5069437;28;20244;-67
2021/05/25 12:49:36;;;;;;;3.35;2.63;;;21.00;90.00;;;;;;5061945;28;20219;-67
2021/05/25 12:52:23;;;;;;;3.97;1.75;;;21.00;90.00;;;;;;5073124;28;20205;-65
2021/05/25 12:54:54;;;;;;;2.42;1.50;;;20.80;88.70;;;;;;5076617;28;20208;-66
2021/05/25 12:57:21;;;;;;;7.50;2.58;;;20.60;86.80;;;;;;5073978;28;20205;-67
2021/05/25 12:59:58;;;;;;;6.30;1.80;;;20.50;86.30;;;;;;5076561;28;20213;-65